Otay (75) Station Data

Red Flag Warning: No
Fire Weather Zone: 250
SDGE Region: Eastern
Lat/Lon: 32.72/-116.928

Observations

Time Wind Speed/Gust Temp(F) RH Fuel Moist Fuel Temp(F) Dewpt(F) Tmax(F) Tmin(F) Accum Precip 10-min Precip SL Press(mb)
4/29 11:50pm 36 2 G 3 64° 21% - - 23° 81.8° 57.7° - - -
4/29 11:40pm 53 3 G 3 64° 21% - - 24° 81.8° 57.7° - - -
4/29 11:30pm 83 0 G 2 66° 19% - - 23° 81.8° 57.7° - - -
4/29 11:20pm 128 2 G 4 68° 17% - - 22° 81.8° 57.7° - - -
4/29 11:10pm 128 4 G 5 67° 18% - - 23° 81.8° 57.7° - - -
4/29 11:00pm 127 4 G 6 67° 20% - - 24° 81.8° 57.7° - - -
4/29 10:50pm 102 4 G 6 67° 19% - - 24° 81.8° 57.7° - - -
4/29 10:40pm 108 4 G 6 67° 20% - - 24° 81.8° 57.7° - - -
4/29 10:30pm 117 3 G 6 68° 19% - - 24° 81.8° 57.7° - - -
4/29 10:20pm 136 3 G 5 67° 19% - - 24° 81.8° 57.7° - - -
4/29 10:10pm 159 3 G 5 66° 20% - - 23° 81.8° 57.7° - - -
4/29 10:00pm 188 4 G 6 65° 20% - - 23° 81.8° 57.7° - - -
4/29 9:50pm 203 2 G 4 66° 19% - - 23° 81.8° 57.7° - - -
4/29 9:40pm 217 0 G 2 66° 19% - - 22° 81.8° 57.7° - - -
4/29 9:30pm 214 2 G 4 66° 18% - - 22° 81.8° 57.7° - - -
4/29 9:20pm 193 4 G 6 66° 18% - - 22° 81.8° 57.7° - - -
4/29 9:10pm 327 2 G 4 67° 17% - - 21° 81.8° 57.7° - - -
4/29 9:00pm 275 3 G 5 67° 17% - - 21° 81.8° 57.7° - - -
4/29 8:50pm 276 3 G 5 68° 17% - - 22° 81.8° 57.7° - - -
4/29 8:40pm 281 2 G 6 68° 15% - - 20° 81.8° 57.7° - - -
4/29 8:30pm 246 1 G 4 68° 15% - - 18° 81.8° 57.7° - - -
4/29 8:20pm 230 2 G 3 68° 14% - - 17° 81.8° 57.7° - - -
4/29 8:10pm 243 2 G 3 68° 14% - - 17° 81.8° 57.7° - - -
4/29 8:00pm 314 4 G 7 69° 12% - - 15° 81.8° 57.7° - - -
4/29 7:50pm 330 6 G 9 70° 12% - - 15° 81.8° 57.7° - - -
4/29 7:40pm 319 5 G 10 70° 12% - - 15° 81.8° 57.7° - - -
4/29 7:30pm 321 2 G 6 71° 12% - - 16° 81.8° 57.7° - - -
4/29 7:20pm 273 2 G 4 71° 12% - - 15° 81.8° 57.7° - - -
4/29 7:10pm 265 5 G 8 72° 11% - - 14° 81.8° 57.7° - - -
4/29 7:00pm 277 5 G 8 72° 11% - - 14° 81.8° 57.7° - - -
4/29 6:50pm 293 6 G 9 73° 11% - - 15° 81.8° 57.7° - - -
4/29 6:40pm 292 7 G 10 73° 11% - - 15° 81.8° 57.7° - - -
4/29 6:30pm 299 9 G 13 74° 10% - - 14° 81.8° 57.7° - - -
4/29 6:20pm 278 7 G 12 74° 10% - - 15° 81.8° 57.7° - - -
4/29 6:10pm 273 9 G 15 75° 9% - - 13° 81.8° 57.7° - - -
4/29 6:00pm 289 8 G 13 75° 9% - - 13° 81.8° 57.7° - - -
4/29 5:50pm 298 9 G 15 76° 9% - - 12° 81.8° 57.7° - - -
4/29 5:40pm 300 9 G 14 77° 9% - - 13° 81.8° 57.7° - - -
4/29 5:30pm 285 8 G 14 77° 8% - - 12° 81.8° 57.7° - - -
4/29 5:20pm 280 10 G 16 77° 9% - - 15° 81.8° 57.7° - - -
4/29 5:10pm 271 8 G 15 77° 9% - - 15° 81.8° 57.7° - - -
4/29 5:00pm 273 9 G 15 77° 9% - - 14° 81.8° 57.7° - - -
4/29 4:50pm 265 9 G 15 77° 9% - - 14° 81.8° 57.7° - - -
4/29 4:40pm 252 10 G 19 78° 9% - - 15° 81.8° 57.7° - - -
4/29 4:30pm 245 9 G 17 79° 9% - - 16° 81.8° 57.7° - - -
4/29 4:20pm 272 8 G 17 78° 10% - - 16° 81.8° 57.7° - - -
4/29 4:10pm 270 10 G 16 78° 9% - - 14° 81.8° 57.7° - - -
4/29 4:00pm 252 10 G 18 78° 9% - - 14° 81.8° 57.7° - - -
4/29 3:50pm 247 11 G 18 79° 8% - - 13° 81.8° 57.7° - - -
4/29 3:40pm 250 8 G 19 79° 8% - - 14° 81.8° 57.7° - - -
4/29 3:30pm 278 11 G 18 78° 8% - - 14° 81.8° 57.7° - - -
4/29 3:20pm 288 8 G 13 79° 8% - - 14° 81.8° 57.7° - - -
4/29 3:10pm 275 9 G 18 79° 8% - - 14° 81.8° 57.7° - - -
4/29 3:00pm 250 8 G 16 80° 8% - - 14° 81.8° 57.7° - - -
4/29 2:50pm 241 10 G 18 80° 9% - - 15° 81.8° 57.7° - - -
4/29 2:40pm 234 12 G 19 80° 8% - - 14° 81.8° 57.7° - - -
4/29 2:30pm 261 8 G 17 81° 8% - - 14° 81.8° 57.7° - - -
4/29 2:20pm 248 7 G 15 81° 8% - - 13° 81.6° 57.7° - - -
4/29 2:10pm 301 7 G 13 79° 8% - - 13° 81.2° 57.7° - - -
4/29 2:00pm 301 6 G 12 79° 8% - - 13° 81.1° 57.7° - - -
4/29 1:50pm 304 8 G 13 79° 8% - - 14° 81° 57.7° - - -
4/29 1:40pm 253 7 G 14 80° 8% - - 13° 81° 57.7° - - -
4/29 1:30pm 259 8 G 16 78° 8% - - 13° 81° 57.7° - - -
4/29 1:20pm 283 8 G 16 78° 8% - - 12° 81° 57.7° - - -
4/29 1:10pm 272 11 G 18 78° 8% - - 12° 81° 57.7° - - -
4/29 1:00pm 270 8 G 16 78° 8% - - 12° 81° 57.7° - - -
4/29 12:50pm 282 7 G 13 79° 8% - - 12° 81° 57.7° - - -
4/29 12:40pm 271 8 G 19 79° 8% - - 12° 81° 57.7° - - -
4/29 12:30pm 251 3 G 9 79° 7% - - 10° 80.2° 57.7° - - -
4/29 12:20pm 283 3 G 10 78° 7% - - 11° 79.8° 57.7° - - -
4/29 12:10pm 287 5 G 10 78° 7% - - 10° 79.1° 57.7° - - -
4/29 12:00pm 293 4 G 13 78° 8% - - 10° 78.7° 57.7° - - -
4/29 11:50am 280 5 G 11 78° 9% - - 14° 78.7° 57.7° - - -
4/29 11:40am 266 5 G 14 77° 9% - - 14° 77.7° 57.7° - - -
4/29 11:30am 286 5 G 11 77° 9% - - 13° 77.5° 57.7° - - -
4/29 11:20am 251 7 G 12 77° 9% - - 15° 77.5° 57.7° - - -
4/29 11:10am 257 7 G 13 76° 9% - - 14° 77.5° 57.7° - - -
4/29 11:00am 271 5 G 10 76° 9% - - 13° 77.5° 57.7° - - -
4/29 10:50am 269 7 G 11 75° 9% - - 13° 77.5° 57.7° - - -
4/29 10:40am 268 7 G 11 75° 9% - - 13° 77.5° 57.7° - - -
4/29 10:30am 277 5 G 12 76° 9% - - 12° 77.5° 57.7° - - -
4/29 10:20am 280 3 G 8 75° 8% - - 11° 77.1° 57.7° - - -
4/29 10:10am 312 4 G 8 74° 9% - - 11° 75.3° 57.7° - - -
4/29 10:00am 298 4 G 7 75° 10% - - 13° 75.3° 57.7° - - -
4/29 9:50am 306 3 G 7 74° 10% - - 14° 74.6° 57.7° - - -
4/29 9:40am 341 2 G 6 74° 10% - - 14° 74.1° 57.7° - - -
4/29 9:30am 8 3 G 8 73° 10% - - 12° 73.5° 57.7° - - -
4/29 9:20am 2 4 G 6 72° 11% - - 15° 72.6° 57.7° - - -
4/29 9:10am 357 3 G 6 71° 12% - - 16° 71.9° 57.7° - - -
4/29 9:00am 342 3 G 6 71° 14% - - 19° 71.5° 57.7° - - -
4/29 8:50am 319 2 G 4 70° 13% - - 17° 70.8° 57.7° - - -
4/29 8:40am 325 1 G 3 70° 14% - - 19° 70.7° 57.7° - - -
4/29 8:30am 24 2 G 4 70° 10% - - 12° 70.5° 57.7° - - -
4/29 8:20am 48 3 G 6 70° 11% - - 13° 70° 57.7° - - -
4/29 8:10am 44 3 G 6 69° 11% - - 13° 69.5° 57.7° - - -
4/29 8:00am 67 5 G 9 69° 11% - - 12° 69.3° 57.7° - - -
4/29 7:50am 77 5 G 10 69° 10% - - 11° 69.2° 57.7° - - -
4/29 7:40am 94 5 G 10 69° 10% - - 68.9° 57.7° - - -
4/29 7:30am 92 5 G 8 68° 10% - - 68.9° 57.7° - - -
4/29 7:20am 99 6 G 11 68° 10% - - 68.9° 57.7° - - -
4/29 7:10am 100 8 G 13 67° 9% - - 68.9° 57.7° - - -
4/29 7:00am 107 8 G 13 67° 9% - - 68.9° 57.7° - - -
4/29 6:50am 107 9 G 12 66° 9% - - 68.9° 57.7° - - -
4/29 6:40am 108 8 G 11 66° 9% - - 68.9° 57.7° - - -
4/29 6:30am 106 9 G 12 66° 9% - - 68.9° 57.7° - - -
4/29 6:20am 108 8 G 10 66° 9% - - 68.9° 57.7° - - -
4/29 6:10am 118 7 G 11 66° 9% - - 68.9° 57.7° - - -
4/29 6:00am 105 8 G 11 67° 9% - - 68.9° 57.7° - - -
4/29 5:50am 106 8 G 12 66° 10% - - 68.9° 57.7° - - -
4/29 5:40am 109 7 G 9 67° 10% - - 68.9° 57.7° - - -
4/29 5:30am 83 5 G 9 66° 11% - - 10° 68.9° 57.7° - - -
4/29 5:20am 97 8 G 10 67° 9% - - 68.9° 57.7° - - -
4/29 5:10am 108 8 G 11 67° 10% - - 68.9° 57.7° - - -
4/29 5:00am 110 8 G 11 67° 10% - - 68.9° 57.7° - - -
4/29 4:50am 107 9 G 12 67° 11% - - 10° 68.9° 57.7° - - -
4/29 4:40am 102 8 G 11 67° 11% - - 10° 68.9° 57.7° - - -
4/29 4:30am 105 9 G 13 67° 10% - - 10° 68.9° 57.7° - - -
4/29 4:20am 108 8 G 11 68° 10% - - 10° 68.9° 57.7° - - -
4/29 4:10am 106 9 G 13 68° 10% - - 10° 68.9° 57.7° - - -
4/29 4:00am 104 9 G 14 68° 10% - - 10° 68.9° 57.7° - - -
4/29 3:50am 104 8 G 12 68° 11% - - 11° 68.5° 57.7° - - -
4/29 3:40am 103 6 G 8 65° 18% - - 20° 67.2° 57.7° - - -
4/29 3:30am 82 6 G 7 62° 28% - - 28° 67.2° 57.7° - - -
4/29 3:20am 69 4 G 7 61° 32% - - 31° 67.2° 57.7° - - -
4/29 3:10am 72 2 G 4 63° 28% - - 29° 67.2° 57.7° - - -
4/29 3:00am 116 2 G 4 61° 34% - - 32° 67.2° 57.7° - - -
4/29 2:50am 156 1 G 5 58° 46% - - 38° 67.2° 57.7° - - -
4/29 2:40am 80 4 G 8 58° 48% - - 39° 67.2° 57.7° - - -
4/29 2:30am 64 5 G 8 63° 34% - - 33° 67.2° 58.8° - - -
4/29 2:20am 121 8 G 11 65° 26% - - 29° 66.5° 58.8° - - -
4/29 2:10am 121 8 G 12 65° 29% - - 33° 66.2° 58.8° - - -
4/29 2:00am 101 7 G 10 65° 33% - - 35° 65.7° 58.8° - - -
4/29 1:50am 97 6 G 9 63° 39% - - 38° 64° 58.8° - - -
4/29 1:40am 95 5 G 7 63° 39% - - 38° 63.2° 58.8° - - -
4/29 1:30am 100 5 G 6 62° 41% - - 38° 63° 58.8° - - -
4/29 1:20am 96 5 G 6 62° 44% - - 40° 62.4° 58.8° - - -
4/29 1:10am 110 4 G 6 61° 52% - - 43° 61.8° 58.8° - - -
4/29 1:00am 138 3 G 5 61° 57% - - 46° 61.1° 58.8° - - -
4/29 12:50am 161 2 G 4 61° 58% - - 46° 60.9° 58.8° - - -
4/29 12:40am 165 2 G 3 60° 58% - - 45° 60.9° 58.8° - - -
4/29 12:30am 172 2 G 4 59° 58% - - 44° 60.9° 58.8° - - -
4/29 12:20am 88 1 G 4 59° 57% - - 44° 60.9° 58.8° - - -
4/29 12:10am 70 3 G 5 60° 50% - - 42° 60.9° 59.4° - - -
4/29 12:00am 144 3 G 5 60° 49% - - 41° 74.5° 54.1° - - -
4/28 11:50pm 152 1 G 4 60° 50% - - 41° 74.5° 54.1° - - -
4/28 11:40pm 77 2 G 5 62° 40% - - 38° 74.5° 54.1° - - -
4/28 11:30pm 131 4 G 7 62° 41% - - 38° 74.5° 54.1° - - -
4/28 11:20pm 108 3 G 5 61° 45% - - 39° 74.5° 54.1° - - -
4/28 11:10pm 64 1 G 4 61° 44% - - 39° 74.5° 54.1° - - -
4/28 11:00pm 288 2 G 4 64° 37% - - 37° 74.5° 54.1° - - -
4/28 10:50pm 137 5 G 8 63° 40% - - 38° 74.5° 54.1° - - -
4/28 10:40pm 135 6 G 9 61° 49% - - 42° 74.5° 54.1° - - -
4/28 10:30pm 130 6 G 10 61° 48% - - 41° 74.5° 54.1° - - -
4/28 10:20pm 126 7 G 11 61° 44% - - 39° 74.5° 54.1° - - -
4/28 10:10pm 140 5 G 11 64° 38% - - 38° 74.5° 54.1° - - -
4/28 10:00pm 177 1 G 3 65° 36% - - 37° 74.5° 54.1° - - -
4/28 9:50pm 191 1 G 3 64° 37% - - 38° 74.5° 54.1° - - -
4/28 9:40pm 213 3 G 4 64° 37% - - 38° 74.5° 54.1° - - -
4/28 9:30pm 129 1 G 2 65° 37% - - 38° 74.5° 54.1° - - -
4/28 9:20pm 90 2 G 3 65° 39% - - 39° 74.5° 54.1° - - -
4/28 9:10pm 109 0 G 4 65° 39% - - 39° 74.5° 54.1° - - -
4/28 9:00pm 188 1 G 4 65° 39% - - 39° 74.5° 54.1° - - -
4/28 8:50pm 190 4 G 4 64° 41% - - 40° 74.5° 54.1° - - -
4/28 8:40pm 211 2 G 4 64° 40% - - 39° 74.5° 54.1° - - -
4/28 8:30pm 244 2 G 4 65° 38% - - 39° 74.5° 54.1° - - -
4/28 8:20pm 281 2 G 5 65° 38% - - 39° 74.5° 54.1° - - -
4/28 8:10pm 259 1 G 3 65° 38% - - 39° 74.5° 54.1° - - -
4/28 8:00pm 287 3 G 8 65° 37% - - 39° 74.5° 54.1° - - -
4/28 7:50pm 266 3 G 7 65° 38% - - 39° 74.5° 54.1° - - -
4/28 7:40pm 280 5 G 9 66° 37% - - 39° 74.5° 54.1° - - -
4/28 7:30pm 279 7 G 10 66° 35% - - 38° 74.5° 54.1° - - -
4/28 7:20pm 278 7 G 11 67° 37% - - 39° 74.5° 54.1° - - -
4/28 7:10pm 265 7 G 11 67° 42% - - 43° 74.5° 54.1° - - -
4/28 7:00pm 276 7 G 11 67° 46% - - 46° 74.5° 54.1° - - -
4/28 6:50pm 261 8 G 11 67° 47% - - 46° 74.5° 54.1° - - -
4/28 6:40pm 265 9 G 13 68° 44% - - 45° 74.5° 54.1° - - -
4/28 6:30pm 270 8 G 11 68° 43% - - 44° 74.5° 54.1° - - -
4/28 6:20pm 261 6 G 12 68° 43% - - 45° 74.5° 54.1° - - -
4/28 6:10pm 268 8 G 14 69° 37% - - 42° 74.5° 54.1° - - -
4/28 6:00pm 270 11 G 15 70° 33% - - 39° 74.5° 54.1° - - -